sensor_id;sensor_type;location;lat;lon;timestamp;temperature;humidity
16846;DHT22;8539;53.188;8.696;2022-08-21T00:00:49;14.10;99.90
16846;DHT22;8539;53.188;8.696;2022-08-21T00:03:16;14.10;99.90
16846;DHT22;8539;53.188;8.696;2022-08-21T00:05:49;14.00;99.90
16846;DHT22;8539;53.188;8.696;2022-08-21T00:08:19;14.00;99.90
16846;DHT22;8539;53.188;8.696;2022-08-21T00:10:45;14.00;99.90
16846;DHT22;8539;53.188;8.696;2022-08-21T00:13:13;14.00;99.90
16846;DHT22;8539;53.188;8.696;2022-08-21T00:15:40;14.00;99.90
16846;DHT22;8539;53.188;8.696;2022-08-21T00:18:08;14.00;99.90
16846;DHT22;8539;53.188;8.696;2022-08-21T00:20:37;14.00;99.90
16846;DHT22;8539;53.188;8.696;2022-08-21T00:23:04;14.00;99.90
16846;DHT22;8539;53.188;8.696;2022-08-21T00:25:31;14.00;99.90
16846;DHT22;8539;53.188;8.696;2022-08-21T00:27:57;13.90;99.90
16846;DHT22;8539;53.188;8.696;2022-08-21T00:30:25;13.90;99.90
16846;DHT22;8539;53.188;8.696;2022-08-21T00:32:53;13.90;99.90
16846;DHT22;8539;53.188;8.696;2022-08-21T00:35:24;13.90;99.90
16846;DHT22;8539;53.188;8.696;2022-08-21T00:37:50;13.90;99.90
16846;DHT22;8539;53.188;8.696;2022-08-21T00:40:22;13.90;99.90
16846;DHT22;8539;53.188;8.696;2022-08-21T00:42:49;13.90;99.90
16846;DHT22;8539;53.188;8.696;2022-08-21T00:45:16;13.90;99.90
16846;DHT22;8539;53.188;8.696;2022-08-21T00:47:42;13.90;99.90
16846;DHT22;8539;53.188;8.696;2022-08-21T00:50:10;13.90;99.90
16846;DHT22;8539;53.188;8.696;2022-08-21T00:52:38;13.90;99.90
16846;DHT22;8539;53.188;8.696;2022-08-21T00:55:08;13.90;99.90
16846;DHT22;8539;53.188;8.696;2022-08-21T00:57:43;13.90;99.90
16846;DHT22;8539;53.188;8.696;2022-08-21T01:00:15;13.90;99.90
16846;DHT22;8539;53.188;8.696;2022-08-21T01:02:45;13.90;99.90
16846;DHT22;8539;53.188;8.696;2022-08-21T01:05:12;13.90;99.90
16846;DHT22;8539;53.188;8.696;2022-08-21T01:07:43;13.90;99.90
16846;DHT22;8539;53.188;8.696;2022-08-21T01:10:10;13.80;99.90
16846;DHT22;8539;53.188;8.696;2022-08-21T01:12:41;13.80;99.90
16846;DHT22;8539;53.188;8.696;2022-08-21T01:15:14;13.80;99.90
16846;DHT22;8539;53.188;8.696;2022-08-21T01:17:44;13.80;99.90
16846;DHT22;8539;53.188;8.696;2022-08-21T01:20:11;13.80;99.90
16846;DHT22;8539;53.188;8.696;2022-08-21T01:22:38;13.80;99.90
16846;DHT22;8539;53.188;8.696;2022-08-21T01:25:06;13.80;99.90
16846;DHT22;8539;53.188;8.696;2022-08-21T01:27:33;13.80;99.90
16846;DHT22;8539;53.188;8.696;2022-08-21T01:30:07;13.70;99.90
16846;DHT22;8539;53.188;8.696;2022-08-21T01:32:41;13.70;99.90
16846;DHT22;8539;53.188;8.696;2022-08-21T01:35:08;13.70;99.90
16846;DHT22;8539;53.188;8.696;2022-08-21T01:37:35;13.70;99.90
16846;DHT22;8539;53.188;8.696;2022-08-21T01:40:03;13.70;99.90
16846;DHT22;8539;53.188;8.696;2022-08-21T01:42:29;13.70;99.90
16846;DHT22;8539;53.188;8.696;2022-08-21T01:44:56;13.70;99.90
16846;DHT22;8539;53.188;8.696;2022-08-21T01:47:22;13.70;99.90
16846;DHT22;8539;53.188;8.696;2022-08-21T01:49:49;13.70;99.90
16846;DHT22;8539;53.188;8.696;2022-08-21T01:52:16;13.70;99.90
16846;DHT22;8539;53.188;8.696;2022-08-21T01:54:42;13.70;99.90
16846;DHT22;8539;53.188;8.696;2022-08-21T01:57:09;13.70;99.90
16846;DHT22;8539;53.188;8.696;2022-08-21T01:59:35;13.60;99.90
16846;DHT22;8539;53.188;8.696;2022-08-21T02:02:03;13.70;99.90
16846;DHT22;8539;53.188;8.696;2022-08-21T02:04:30;13.70;99.90
16846;DHT22;8539;53.188;8.696;2022-08-21T02:06:56;13.60;99.90
16846;DHT22;8539;53.188;8.696;2022-08-21T02:09:23;13.70;99.90
16846;DHT22;8539;53.188;8.696;2022-08-21T02:11:49;13.70;99.90
16846;DHT22;8539;53.188;8.696;2022-08-21T02:14:16;13.70;99.90
16846;DHT22;8539;53.188;8.696;2022-08-21T02:16:44;13.70;99.90
16846;DHT22;8539;53.188;8.696;2022-08-21T02:19:11;13.70;99.90
16846;DHT22;8539;53.188;8.696;2022-08-21T02:21:38;13.70;99.90
16846;DHT22;8539;53.188;8.696;2022-08-21T02:24:05;13.70;99.90
16846;DHT22;8539;53.188;8.696;2022-08-21T02:26:32;13.70;99.90
16846;DHT22;8539;53.188;8.696;2022-08-21T02:29:02;13.70;99.90
16846;DHT22;8539;53.188;8.696;2022-08-21T02:31:29;13.70;99.90
16846;DHT22;8539;53.188;8.696;2022-08-21T02:34:00;13.70;99.90
16846;DHT22;8539;53.188;8.696;2022-08-21T02:36:27;13.70;99.90
16846;DHT22;8539;53.188;8.696;2022-08-21T02:38:53;13.70;99.90
16846;DHT22;8539;53.188;8.696;2022-08-21T02:41:20;13.70;99.90
16846;DHT22;8539;53.188;8.696;2022-08-21T02:43:47;13.70;99.90
16846;DHT22;8539;53.188;8.696;2022-08-21T02:46:16;13.70;99.90
16846;DHT22;8539;53.188;8.696;2022-08-21T02:48:43;13.70;99.90
16846;DHT22;8539;53.188;8.696;2022-08-21T02:51:14;13.70;99.90
16846;DHT22;8539;53.188;8.696;2022-08-21T02:53:41;13.70;99.90
16846;DHT22;8539;53.188;8.696;2022-08-21T02:56:10;13.70;99.90
16846;DHT22;8539;53.188;8.696;2022-08-21T02:58:43;13.60;99.90
16846;DHT22;8539;53.188;8.696;2022-08-21T03:01:11;13.60;99.90
16846;DHT22;8539;53.188;8.696;2022-08-21T03:03:40;13.60;99.90
16846;DHT22;8539;53.188;8.696;2022-08-21T03:06:08;13.60;99.90
16846;DHT22;8539;53.188;8.696;2022-08-21T03:08:35;13.60;99.90
16846;DHT22;8539;53.188;8.696;2022-08-21T03:11:02;13.60;99.90
16846;DHT22;8539;53.188;8.696;2022-08-21T03:13:29;13.60;99.90
16846;DHT22;8539;53.188;8.696;2022-08-21T03:15:55;13.60;99.90
16846;DHT22;8539;53.188;8.696;2022-08-21T03:18:22;13.60;99.90
16846;DHT22;8539;53.188;8.696;2022-08-21T03:20:48;13.60;99.90
16846;DHT22;8539;53.188;8.696;2022-08-21T03:23:16;13.50;99.90
16846;DHT22;8539;53.188;8.696;2022-08-21T03:25:44;13.50;99.90
16846;DHT22;8539;53.188;8.696;2022-08-21T03:28:13;13.50;99.90
16846;DHT22;8539;53.188;8.696;2022-08-21T03:30:41;13.50;99.90
16846;DHT22;8539;53.188;8.696;2022-08-21T03:33:07;13.50;99.90
16846;DHT22;8539;53.188;8.696;2022-08-21T03:35:33;13.50;99.90
16846;DHT22;8539;53.188;8.696;2022-08-21T03:37:59;13.40;99.90
16846;DHT22;8539;53.188;8.696;2022-08-21T03:40:25;13.40;99.90
16846;DHT22;8539;53.188;8.696;2022-08-21T03:42:51;13.40;99.90
16846;DHT22;8539;53.188;8.696;2022-08-21T03:45:19;13.40;99.90
16846;DHT22;8539;53.188;8.696;2022-08-21T03:47:57;13.40;99.90
16846;DHT22;8539;53.188;8.696;2022-08-21T03:50:25;13.40;99.90
16846;DHT22;8539;53.188;8.696;2022-08-21T03:52:52;13.40;99.90
16846;DHT22;8539;53.188;8.696;2022-08-21T03:55:18;13.40;99.90
16846;DHT22;8539;53.188;8.696;2022-08-21T03:57:44;13.40;99.90
16846;DHT22;8539;53.188;8.696;2022-08-21T04:00:12;13.50;99.90
16846;DHT22;8539;53.188;8.696;2022-08-21T04:02:39;13.50;99.90
16846;DHT22;8539;53.188;8.696;2022-08-21T04:05:07;13.50;99.90
16846;DHT22;8539;53.188;8.696;2022-08-21T04:07:33;13.50;99.90
16846;DHT22;8539;53.188;8.696;2022-08-21T04:10:00;13.50;99.90
16846;DHT22;8539;53.188;8.696;2022-08-21T04:12:26;13.50;99.90
16846;DHT22;8539;53.188;8.696;2022-08-21T04:14:52;13.50;99.90
16846;DHT22;8539;53.188;8.696;2022-08-21T04:17:18;13.50;99.90
16846;DHT22;8539;53.188;8.696;2022-08-21T04:19:45;13.50;99.90
16846;DHT22;8539;53.188;8.696;2022-08-21T04:22:11;13.50;99.90
16846;DHT22;8539;53.188;8.696;2022-08-21T04:24:38;13.50;99.90
16846;DHT22;8539;53.188;8.696;2022-08-21T04:27:04;13.50;99.90
16846;DHT22;8539;53.188;8.696;2022-08-21T04:29:30;13.50;99.90
16846;DHT22;8539;53.188;8.696;2022-08-21T04:31:56;13.50;99.90
16846;DHT22;8539;53.188;8.696;2022-08-21T04:34:41;13.40;99.90
16846;DHT22;8539;53.188;8.696;2022-08-21T04:37:11;13.50;99.90
16846;DHT22;8539;53.188;8.696;2022-08-21T04:39:37;13.40;99.90
16846;DHT22;8539;53.188;8.696;2022-08-21T04:42:03;13.40;99.90
16846;DHT22;8539;53.188;8.696;2022-08-21T04:44:32;13.40;99.90
16846;DHT22;8539;53.188;8.696;2022-08-21T04:46:58;13.40;99.90
16846;DHT22;8539;53.188;8.696;2022-08-21T04:49:24;13.40;99.90
16846;DHT22;8539;53.188;8.696;2022-08-21T04:51:51;13.40;99.90
16846;DHT22;8539;53.188;8.696;2022-08-21T04:54:20;13.40;99.90
16846;DHT22;8539;53.188;8.696;2022-08-21T04:56:54;13.40;99.90
16846;DHT22;8539;53.188;8.696;2022-08-21T04:59:29;13.50;99.90
16846;DHT22;8539;53.188;8.696;2022-08-21T05:01:57;13.50;99.90
16846;DHT22;8539;53.188;8.696;2022-08-21T05:04:26;13.50;99.90
16846;DHT22;8539;53.188;8.696;2022-08-21T05:06:58;13.50;99.90
16846;DHT22;8539;53.188;8.696;2022-08-21T05:09:27;13.60;99.90
16846;DHT22;8539;53.188;8.696;2022-08-21T05:11:53;13.60;99.90
16846;DHT22;8539;53.188;8.696;2022-08-21T05:14:20;13.60;99.90
16846;DHT22;8539;53.188;8.696;2022-08-21T05:16:47;13.70;99.90
16846;DHT22;8539;53.188;8.696;2022-08-21T05:19:14;13.70;99.90
16846;DHT22;8539;53.188;8.696;2022-08-21T05:21:42;13.80;99.90
16846;DHT22;8539;53.188;8.696;2022-08-21T05:24:10;13.80;99.90
16846;DHT22;8539;53.188;8.696;2022-08-21T05:26:37;13.90;99.90
16846;DHT22;8539;53.188;8.696;2022-08-21T05:29:05;13.90;99.90
16846;DHT22;8539;53.188;8.696;2022-08-21T05:31:32;14.00;99.90
16846;DHT22;8539;53.188;8.696;2022-08-21T05:33:58;14.10;99.90
16846;DHT22;8539;53.188;8.696;2022-08-21T05:36:25;14.20;99.90
16846;DHT22;8539;53.188;8.696;2022-08-21T05:38:51;14.30;99.90
16846;DHT22;8539;53.188;8.696;2022-08-21T05:41:17;14.50;99.90
16846;DHT22;8539;53.188;8.696;2022-08-21T05:43:43;14.70;99.90
16846;DHT22;8539;53.188;8.696;2022-08-21T05:46:10;14.80;99.90
16846;DHT22;8539;53.188;8.696;2022-08-21T05:48:36;15.00;99.90
16846;DHT22;8539;53.188;8.696;2022-08-21T05:51:11;15.10;99.90
16846;DHT22;8539;53.188;8.696;2022-08-21T05:53:39;15.20;99.90
16846;DHT22;8539;53.188;8.696;2022-08-21T05:56:05;15.40;99.90
16846;DHT22;8539;53.188;8.696;2022-08-21T05:58:34;16.00;99.90
16846;DHT22;8539;53.188;8.696;2022-08-21T06:01:01;16.90;99.90
16846;DHT22;8539;53.188;8.696;2022-08-21T06:03:34;17.10;99.90
16846;DHT22;8539;53.188;8.696;2022-08-21T06:06:02;17.10;99.90
16846;DHT22;8539;53.188;8.696;2022-08-21T06:08:28;16.90;99.90
16846;DHT22;8539;53.188;8.696;2022-08-21T06:10:56;16.80;99.90
16846;DHT22;8539;53.188;8.696;2022-08-21T06:13:23;16.80;99.90
16846;DHT22;8539;53.188;8.696;2022-08-21T06:16:01;17.20;99.90
16846;DHT22;8539;53.188;8.696;2022-08-21T06:18:27;17.70;99.90
16846;DHT22;8539;53.188;8.696;2022-08-21T06:20:54;18.10;99.90
16846;DHT22;8539;53.188;8.696;2022-08-21T06:23:20;18.20;99.90
16846;DHT22;8539;53.188;8.696;2022-08-21T06:25:47;18.10;99.90
16846;DHT22;8539;53.188;8.696;2022-08-21T06:28:13;18.20;99.90
16846;DHT22;8539;53.188;8.696;2022-08-21T06:30:39;18.70;99.90
16846;DHT22;8539;53.188;8.696;2022-08-21T06:33:06;19.10;99.90
16846;DHT22;8539;53.188;8.696;2022-08-21T06:35:33;19.20;99.90
16846;DHT22;8539;53.188;8.696;2022-08-21T06:37:59;19.40;99.90
16846;DHT22;8539;53.188;8.696;2022-08-21T06:40:27;19.40;99.90
16846;DHT22;8539;53.188;8.696;2022-08-21T06:42:53;19.40;99.90
16846;DHT22;8539;53.188;8.696;2022-08-21T06:45:21;19.40;99.90
16846;DHT22;8539;53.188;8.696;2022-08-21T06:47:47;19.40;99.90
16846;DHT22;8539;53.188;8.696;2022-08-21T06:50:14;19.30;99.90
16846;DHT22;8539;53.188;8.696;2022-08-21T06:52:40;19.20;99.90
16846;DHT22;8539;53.188;8.696;2022-08-21T06:55:10;19.20;99.90
16846;DHT22;8539;53.188;8.696;2022-08-21T06:57:37;19.30;99.90
16846;DHT22;8539;53.188;8.696;2022-08-21T07:00:04;19.40;99.90
16846;DHT22;8539;53.188;8.696;2022-08-21T07:02:31;19.40;99.90
16846;DHT22;8539;53.188;8.696;2022-08-21T07:04:59;19.40;99.90
16846;DHT22;8539;53.188;8.696;2022-08-21T07:07:25;19.30;99.90
16846;DHT22;8539;53.188;8.696;2022-08-21T07:09:52;19.30;99.90
16846;DHT22;8539;53.188;8.696;2022-08-21T07:12:18;19.30;99.90
16846;DHT22;8539;53.188;8.696;2022-08-21T07:14:45;19.40;99.90
16846;DHT22;8539;53.188;8.696;2022-08-21T07:17:11;19.40;99.90
16846;DHT22;8539;53.188;8.696;2022-08-21T07:19:37;19.50;99.90
16846;DHT22;8539;53.188;8.696;2022-08-21T07:22:03;19.50;99.90
16846;DHT22;8539;53.188;8.696;2022-08-21T07:24:30;19.60;99.90
16846;DHT22;8539;53.188;8.696;2022-08-21T07:26:56;19.70;99.90
16846;DHT22;8539;53.188;8.696;2022-08-21T07:29:22;19.80;99.90
16846;DHT22;8539;53.188;8.696;2022-08-21T07:31:49;19.90;99.90
16846;DHT22;8539;53.188;8.696;2022-08-21T07:34:15;20.00;99.90
16846;DHT22;8539;53.188;8.696;2022-08-21T07:36:41;20.10;99.90
16846;DHT22;8539;53.188;8.696;2022-08-21T07:39:08;20.20;99.90
16846;DHT22;8539;53.188;8.696;2022-08-21T07:41:34;20.20;99.90
16846;DHT22;8539;53.188;8.696;2022-08-21T07:44:01;20.30;99.90
16846;DHT22;8539;53.188;8.696;2022-08-21T07:46:27;20.40;99.90
16846;DHT22;8539;53.188;8.696;2022-08-21T07:48:54;20.40;99.90
16846;DHT22;8539;53.188;8.696;2022-08-21T07:51:24;20.50;99.90
16846;DHT22;8539;53.188;8.696;2022-08-21T07:53:55;20.50;99.90
16846;DHT22;8539;53.188;8.696;2022-08-21T07:56:22;20.50;99.90
16846;DHT22;8539;53.188;8.696;2022-08-21T07:58:48;20.50;99.90
16846;DHT22;8539;53.188;8.696;2022-08-21T08:01:15;20.50;99.90
16846;DHT22;8539;53.188;8.696;2022-08-21T08:03:41;20.60;99.90
16846;DHT22;8539;53.188;8.696;2022-08-21T08:06:08;20.60;99.90
16846;DHT22;8539;53.188;8.696;2022-08-21T08:08:41;20.60;99.90
16846;DHT22;8539;53.188;8.696;2022-08-21T08:11:09;20.60;99.90
16846;DHT22;8539;53.188;8.696;2022-08-21T08:13:43;20.70;99.90
16846;DHT22;8539;53.188;8.696;2022-08-21T08:16:10;20.70;99.90
16846;DHT22;8539;53.188;8.696;2022-08-21T08:18:36;20.70;99.90
16846;DHT22;8539;53.188;8.696;2022-08-21T08:21:03;20.70;99.90
16846;DHT22;8539;53.188;8.696;2022-08-21T08:23:31;20.80;99.90
16846;DHT22;8539;53.188;8.696;2022-08-21T08:25:59;20.70;99.90
16846;DHT22;8539;53.188;8.696;2022-08-21T08:28:25;20.80;99.90
16846;DHT22;8539;53.188;8.696;2022-08-21T08:30:53;20.90;99.90
16846;DHT22;8539;53.188;8.696;2022-08-21T08:33:19;21.00;99.90
16846;DHT22;8539;53.188;8.696;2022-08-21T08:35:48;21.20;99.90
16846;DHT22;8539;53.188;8.696;2022-08-21T08:38:17;21.30;99.90
16846;DHT22;8539;53.188;8.696;2022-08-21T08:41:13;21.40;99.90
16846;DHT22;8539;53.188;8.696;2022-08-21T08:43:44;21.60;99.90
16846;DHT22;8539;53.188;8.696;2022-08-21T08:46:15;21.80;99.90
16846;DHT22;8539;53.188;8.696;2022-08-21T08:52:05;22.00;99.90
16846;DHT22;8539;53.188;8.696;2022-08-21T08:54:38;22.10;99.90
16846;DHT22;8539;53.188;8.696;2022-08-21T08:57:10;22.30;99.80
16846;DHT22;8539;53.188;8.696;2022-08-21T08:59:43;22.40;99.60
16846;DHT22;8539;53.188;8.696;2022-08-21T09:02:12;22.50;99.40
16846;DHT22;8539;53.188;8.696;2022-08-21T09:04:39;22.60;99.20
16846;DHT22;8539;53.188;8.696;2022-08-21T09:07:41;22.70;99.20
16846;DHT22;8539;53.188;8.696;2022-08-21T09:13:18;22.90;99.10
16846;DHT22;8539;53.188;8.696;2022-08-21T09:16:04;23.10;99.20
16846;DHT22;8539;53.188;8.696;2022-08-21T09:19:07;23.30;99.20
16846;DHT22;8539;53.188;8.696;2022-08-21T09:24:32;23.50;98.90
16846;DHT22;8539;53.188;8.696;2022-08-21T09:27:16;23.50;98.80
16846;DHT22;8539;53.188;8.696;2022-08-21T09:29:46;23.40;98.50
16846;DHT22;8539;53.188;8.696;2022-08-21T09:32:34;23.50;98.30
16846;DHT22;8539;53.188;8.696;2022-08-21T09:35:14;23.50;98.30
16846;DHT22;8539;53.188;8.696;2022-08-21T09:37:57;23.60;98.20
16846;DHT22;8539;53.188;8.696;2022-08-21T09:40:44;23.70;97.90
16846;DHT22;8539;53.188;8.696;2022-08-21T09:45:41;23.70;97.30
16846;DHT22;8539;53.188;8.696;2022-08-21T09:48:28;23.60;97.00
16846;DHT22;8539;53.188;8.696;2022-08-21T09:51:24;23.30;96.70
16846;DHT22;8539;53.188;8.696;2022-08-21T09:56:32;22.90;96.80
16846;DHT22;8539;53.188;8.696;2022-08-21T09:59:25;22.70;97.00
16846;DHT22;8539;53.188;8.696;2022-08-21T10:01:53;22.40;97.20
16846;DHT22;8539;53.188;8.696;2022-08-21T10:04:33;22.40;97.50
16846;DHT22;8539;53.188;8.696;2022-08-21T10:07:12;22.60;97.70
16846;DHT22;8539;53.188;8.696;2022-08-21T10:09:41;22.90;97.70
16846;DHT22;8539;53.188;8.696;2022-08-21T10:12:24;23.20;97.60
16846;DHT22;8539;53.188;8.696;2022-08-21T10:28:11;24.00;95.50
16846;DHT22;8539;53.188;8.696;2022-08-21T10:30:52;24.10;95.10
16846;DHT22;8539;53.188;8.696;2022-08-21T10:47:30;24.60;94.00
16846;DHT22;8539;53.188;8.696;2022-08-21T10:51:03;24.50;93.90
16846;DHT22;8539;53.188;8.696;2022-08-21T10:55:33;24.30;93.90
16846;DHT22;8539;53.188;8.696;2022-08-21T10:58:16;24.40;94.10
16846;DHT22;8539;53.188;8.696;2022-08-21T11:00:46;24.70;93.90
16846;DHT22;8539;53.188;8.696;2022-08-21T11:03:33;25.00;93.80
16846;DHT22;8539;53.188;8.696;2022-08-21T11:06:12;25.20;93.60
16846;DHT22;8539;53.188;8.696;2022-08-21T11:08:45;25.10;93.20
16846;DHT22;8539;53.188;8.696;2022-08-21T11:11:18;25.10;92.90
16846;DHT22;8539;53.188;8.696;2022-08-21T11:16:44;25.10;92.20
16846;DHT22;8539;53.188;8.696;2022-08-21T11:19:22;25.00;91.90
16846;DHT22;8539;53.188;8.696;2022-08-21T11:24:42;25.20;91.50
16846;DHT22;8539;53.188;8.696;2022-08-21T11:29:57;25.60;90.80
16846;DHT22;8539;53.188;8.696;2022-08-21T11:43:39;26.00;89.60
16846;DHT22;8539;53.188;8.696;2022-08-21T11:54:46;25.40;88.50
16846;DHT22;8539;53.188;8.696;2022-08-21T11:57:19;25.00;88.70
16846;DHT22;8539;53.188;8.696;2022-08-21T12:02:31;24.80;89.00
16846;DHT22;8539;53.188;8.696;2022-08-21T12:05:06;24.90;89.40
16846;DHT22;8539;53.188;8.696;2022-08-21T12:10:06;25.40;90.00
16846;DHT22;8539;53.188;8.696;2022-08-21T12:12:34;25.40;89.80
16846;DHT22;8539;53.188;8.696;2022-08-21T12:17:38;25.50;89.20
16846;DHT22;8539;53.188;8.696;2022-08-21T12:23:18;25.70;86.30
16846;DHT22;8539;53.188;8.696;2022-08-21T12:25:58;25.70;85.90
16846;DHT22;8539;53.188;8.696;2022-08-21T12:28:30;25.80;85.20
16846;DHT22;8539;53.188;8.696;2022-08-21T12:30:57;25.70;84.80
16846;DHT22;8539;53.188;8.696;2022-08-21T12:33:25;25.70;84.70
16846;DHT22;8539;53.188;8.696;2022-08-21T12:36:03;25.80;85.20
16846;DHT22;8539;53.188;8.696;2022-08-21T12:38:45;25.90;85.40
16846;DHT22;8539;53.188;8.696;2022-08-21T12:41:20;26.00;85.60
16846;DHT22;8539;53.188;8.696;2022-08-21T12:44:15;25.90;85.80
16846;DHT22;8539;53.188;8.696;2022-08-21T12:47:05;25.90;85.80
16846;DHT22;8539;53.188;8.696;2022-08-21T12:49:39;25.90;85.60
16846;DHT22;8539;53.188;8.696;2022-08-21T12:55:15;26.00;85.00
16846;DHT22;8539;53.188;8.696;2022-08-21T12:57:51;26.00;84.60
16846;DHT22;8539;53.188;8.696;2022-08-21T13:00:21;26.00;84.50
16846;DHT22;8539;53.188;8.696;2022-08-21T13:02:49;26.10;84.40
16846;DHT22;8539;53.188;8.696;2022-08-21T13:05:33;26.10;84.20
16846;DHT22;8539;53.188;8.696;2022-08-21T13:08:07;26.30;84.10
16846;DHT22;8539;53.188;8.696;2022-08-21T13:10:40;26.50;83.70
16846;DHT22;8539;53.188;8.696;2022-08-21T13:13:12;26.40;83.20
16846;DHT22;8539;53.188;8.696;2022-08-21T13:15:42;26.30;82.80
16846;DHT22;8539;53.188;8.696;2022-08-21T13:18:22;26.30;82.40
16846;DHT22;8539;53.188;8.696;2022-08-21T13:20:49;26.40;82.10
16846;DHT22;8539;53.188;8.696;2022-08-21T13:23:26;26.40;81.90
16846;DHT22;8539;53.188;8.696;2022-08-21T13:25:52;26.40;81.50
16846;DHT22;8539;53.188;8.696;2022-08-21T13:28:20;26.40;81.30
16846;DHT22;8539;53.188;8.696;2022-08-21T13:30:56;26.40;81.00
16846;DHT22;8539;53.188;8.696;2022-08-21T13:33:25;26.40;80.80
16846;DHT22;8539;53.188;8.696;2022-08-21T13:36:06;26.40;80.80
16846;DHT22;8539;53.188;8.696;2022-08-21T13:38:36;26.60;80.60
16846;DHT22;8539;53.188;8.696;2022-08-21T13:41:09;26.70;80.50
16846;DHT22;8539;53.188;8.696;2022-08-21T13:43:37;26.60;80.70
16846;DHT22;8539;53.188;8.696;2022-08-21T13:46:09;26.60;80.80
16846;DHT22;8539;53.188;8.696;2022-08-21T13:48:37;26.60;80.70
16846;DHT22;8539;53.188;8.696;2022-08-21T13:51:04;26.60;80.50
16846;DHT22;8539;53.188;8.696;2022-08-21T13:56:22;26.70;80.40
16846;DHT22;8539;53.188;8.696;2022-08-21T13:58:49;26.80;79.90
16846;DHT22;8539;53.188;8.696;2022-08-21T14:01:22;26.80;79.60
16846;DHT22;8539;53.188;8.696;2022-08-21T14:03:52;26.80;79.20
16846;DHT22;8539;53.188;8.696;2022-08-21T14:06:22;26.80;78.90
16846;DHT22;8539;53.188;8.696;2022-08-21T14:09:03;26.80;78.70
16846;DHT22;8539;53.188;8.696;2022-08-21T14:11:34;26.80;78.20
16846;DHT22;8539;53.188;8.696;2022-08-21T14:14:04;26.80;78.00
16846;DHT22;8539;53.188;8.696;2022-08-21T14:16:43;26.90;77.90
16846;DHT22;8539;53.188;8.696;2022-08-21T14:19:19;26.90;77.70
16846;DHT22;8539;53.188;8.696;2022-08-21T14:21:46;26.60;77.60
16846;DHT22;8539;53.188;8.696;2022-08-21T14:24:26;26.50;77.50
16846;DHT22;8539;53.188;8.696;2022-08-21T14:27:02;26.20;77.70
16846;DHT22;8539;53.188;8.696;2022-08-21T14:29:36;26.10;77.90
16846;DHT22;8539;53.188;8.696;2022-08-21T14:32:13;26.00;78.30
16846;DHT22;8539;53.188;8.696;2022-08-21T14:34:40;26.10;78.40
16846;DHT22;8539;53.188;8.696;2022-08-21T14:37:06;26.30;78.60
16846;DHT22;8539;53.188;8.696;2022-08-21T14:39:33;26.50;78.40
16846;DHT22;8539;53.188;8.696;2022-08-21T14:42:01;26.50;78.10
16846;DHT22;8539;53.188;8.696;2022-08-21T14:44:27;26.50;77.80
16846;DHT22;8539;53.188;8.696;2022-08-21T14:46:55;26.40;77.50
16846;DHT22;8539;53.188;8.696;2022-08-21T14:49:23;26.50;77.30
16846;DHT22;8539;53.188;8.696;2022-08-21T14:51:51;26.60;77.20
16846;DHT22;8539;53.188;8.696;2022-08-21T14:54:27;26.60;77.30
16846;DHT22;8539;53.188;8.696;2022-08-21T14:56:54;26.50;77.40
16846;DHT22;8539;53.188;8.696;2022-08-21T14:59:21;26.40;77.50
16846;DHT22;8539;53.188;8.696;2022-08-21T15:01:47;26.30;77.60
16846;DHT22;8539;53.188;8.696;2022-08-21T15:04:16;26.10;77.50
16846;DHT22;8539;53.188;8.696;2022-08-21T15:06:43;26.10;77.50
16846;DHT22;8539;53.188;8.696;2022-08-21T15:09:09;26.20;77.80
16846;DHT22;8539;53.188;8.696;2022-08-21T15:11:35;26.40;77.90
16846;DHT22;8539;53.188;8.696;2022-08-21T15:14:03;26.70;78.20
16846;DHT22;8539;53.188;8.696;2022-08-21T15:16:31;27.00;78.20
16846;DHT22;8539;53.188;8.696;2022-08-21T15:18:59;27.10;77.60
16846;DHT22;8539;53.188;8.696;2022-08-21T15:21:25;27.20;76.00
16846;DHT22;8539;53.188;8.696;2022-08-21T15:23:52;27.20;75.20
16846;DHT22;8539;53.188;8.696;2022-08-21T15:26:21;27.20;74.50
16846;DHT22;8539;53.188;8.696;2022-08-21T15:28:48;27.30;74.20
16846;DHT22;8539;53.188;8.696;2022-08-21T15:31:14;27.30;73.70
16846;DHT22;8539;53.188;8.696;2022-08-21T15:33:41;27.40;73.30
16846;DHT22;8539;53.188;8.696;2022-08-21T15:36:07;27.40;72.30
16846;DHT22;8539;53.188;8.696;2022-08-21T15:38:33;27.30;71.40
16846;DHT22;8539;53.188;8.696;2022-08-21T15:41:02;27.20;71.20
16846;DHT22;8539;53.188;8.696;2022-08-21T15:43:34;27.20;71.30
16846;DHT22;8539;53.188;8.696;2022-08-21T15:46:01;27.20;71.30
16846;DHT22;8539;53.188;8.696;2022-08-21T15:48:28;27.20;71.50
16846;DHT22;8539;53.188;8.696;2022-08-21T15:50:54;27.20;71.60
16846;DHT22;8539;53.188;8.696;2022-08-21T15:53:20;27.30;72.00
16846;DHT22;8539;53.188;8.696;2022-08-21T15:55:46;27.20;72.00
16846;DHT22;8539;53.188;8.696;2022-08-21T15:58:15;27.20;71.90
16846;DHT22;8539;53.188;8.696;2022-08-21T16:00:42;27.20;71.80
16846;DHT22;8539;53.188;8.696;2022-08-21T16:03:13;27.20;71.80
16846;DHT22;8539;53.188;8.696;2022-08-21T16:05:43;27.20;71.90
16846;DHT22;8539;53.188;8.696;2022-08-21T16:08:11;27.20;71.90
16846;DHT22;8539;53.188;8.696;2022-08-21T16:10:38;27.10;71.90
16846;DHT22;8539;53.188;8.696;2022-08-21T16:13:08;27.10;71.90
16846;DHT22;8539;53.188;8.696;2022-08-21T16:15:35;26.90;71.80
16846;DHT22;8539;53.188;8.696;2022-08-21T16:18:02;26.70;71.60
16846;DHT22;8539;53.188;8.696;2022-08-21T16:20:29;26.60;71.50
16846;DHT22;8539;53.188;8.696;2022-08-21T16:22:58;26.50;71.60
16846;DHT22;8539;53.188;8.696;2022-08-21T16:25:25;26.30;71.60
16846;DHT22;8539;53.188;8.696;2022-08-21T16:27:55;26.20;71.90
16846;DHT22;8539;53.188;8.696;2022-08-21T16:30:23;26.10;72.20
16846;DHT22;8539;53.188;8.696;2022-08-21T16:32:49;25.90;72.50
16846;DHT22;8539;53.188;8.696;2022-08-21T16:35:19;25.80;72.80
16846;DHT22;8539;53.188;8.696;2022-08-21T16:37:45;25.60;74.40
16846;DHT22;8539;53.188;8.696;2022-08-21T16:40:13;25.40;76.50
16846;DHT22;8539;53.188;8.696;2022-08-21T16:42:40;25.30;77.70
16846;DHT22;8539;53.188;8.696;2022-08-21T16:45:16;25.10;79.20
16846;DHT22;8539;53.188;8.696;2022-08-21T16:47:43;25.00;80.80
16846;DHT22;8539;53.188;8.696;2022-08-21T16:50:15;24.90;83.00
16846;DHT22;8539;53.188;8.696;2022-08-21T16:52:42;24.80;84.30
16846;DHT22;8539;53.188;8.696;2022-08-21T16:55:08;24.70;86.40
16846;DHT22;8539;53.188;8.696;2022-08-21T16:57:35;24.60;87.90
16846;DHT22;8539;53.188;8.696;2022-08-21T17:00:04;24.60;89.60
16846;DHT22;8539;53.188;8.696;2022-08-21T17:02:36;24.50;89.90
16846;DHT22;8539;53.188;8.696;2022-08-21T17:05:04;24.40;91.00
16846;DHT22;8539;53.188;8.696;2022-08-21T17:07:32;24.30;91.40
16846;DHT22;8539;53.188;8.696;2022-08-21T17:09:58;24.30;92.00
16846;DHT22;8539;53.188;8.696;2022-08-21T17:12:24;24.20;92.40
16846;DHT22;8539;53.188;8.696;2022-08-21T17:14:51;24.20;92.80
16846;DHT22;8539;53.188;8.696;2022-08-21T17:17:17;24.10;93.30
16846;DHT22;8539;53.188;8.696;2022-08-21T17:19:44;24.00;93.60
16846;DHT22;8539;53.188;8.696;2022-08-21T17:22:11;23.90;93.80
16846;DHT22;8539;53.188;8.696;2022-08-21T17:24:37;23.70;94.00
16846;DHT22;8539;53.188;8.696;2022-08-21T17:27:04;23.70;94.20
16846;DHT22;8539;53.188;8.696;2022-08-21T17:29:36;23.60;94.40